sensor_id;sensor_type;location;lat;lon;timestamp;pressure;altitude;pressure_sealevel;temperature;humidity
9521;BME280;4798;41.574;23.734;2023-07-22T00:02:26;95337.06;;;26.20;89.32
9521;BME280;4798;41.574;23.734;2023-07-22T00:04:54;95324.56;;;25.85;92.08
9521;BME280;4798;41.574;23.734;2023-07-22T00:07:23;95348.00;;;26.23;92.10
9521;BME280;4798;41.574;23.734;2023-07-22T00:09:51;95337.94;;;26.27;91.48
9521;BME280;4798;41.574;23.734;2023-07-22T00:12:21;95333.00;;;26.36;90.89
9521;BME280;4798;41.574;23.734;2023-07-22T00:14:52;95337.78;;;26.46;89.95
9521;BME280;4798;41.574;23.734;2023-07-22T00:17:21;95337.53;;;26.55;87.94
9521;BME280;4798;41.574;23.734;2023-07-22T00:19:51;95336.66;;;26.47;90.14
9521;BME280;4798;41.574;23.734;2023-07-22T00:22:21;95279.97;;;26.16;89.79
9521;BME280;4798;41.574;23.734;2023-07-22T00:24:49;95347.66;;;26.58;88.14
9521;BME280;4798;41.574;23.734;2023-07-22T00:27:17;95347.53;;;26.47;89.50
9521;BME280;4798;41.574;23.734;2023-07-22T00:29:47;95342.69;;;26.34;90.49
9521;BME280;4798;41.574;23.734;2023-07-22T00:32:15;95343.28;;;25.94;93.92
9521;BME280;4798;41.574;23.734;2023-07-22T00:34:44;95346.94;;;26.05;93.76
9521;BME280;4798;41.574;23.734;2023-07-22T00:37:13;95351.03;;;26.18;92.80
9521;BME280;4798;41.574;23.734;2023-07-22T00:39:41;95349.28;;;26.07;93.53
9521;BME280;4798;41.574;23.734;2023-07-22T00:42:09;95339.00;;;25.93;96.02
9521;BME280;4798;41.574;23.734;2023-07-22T00:44:38;95353.09;;;26.02;95.92
9521;BME280;4798;41.574;23.734;2023-07-22T00:47:08;95352.69;;;26.00;96.36
9521;BME280;4798;41.574;23.734;2023-07-22T00:49:37;95342.88;;;25.92;96.34
9521;BME280;4798;41.574;23.734;2023-07-22T00:52:05;95350.59;;;25.90;96.56
9521;BME280;4798;41.574;23.734;2023-07-22T00:54:33;95360.59;;;25.86;97.71
9521;BME280;4798;41.574;23.734;2023-07-22T00:57:02;95361.16;;;25.95;97.49
9521;BME280;4798;41.574;23.734;2023-07-22T00:59:31;95356.59;;;26.03;96.78
9521;BME280;4798;41.574;23.734;2023-07-22T01:01:59;95351.66;;;26.08;96.11
9521;BME280;4798;41.574;23.734;2023-07-22T01:04:33;95347.41;;;26.11;95.04
9521;BME280;4798;41.574;23.734;2023-07-22T01:07:04;95350.19;;;26.14;93.91
9521;BME280;4798;41.574;23.734;2023-07-22T01:09:35;95355.69;;;26.18;93.30
9521;BME280;4798;41.574;23.734;2023-07-22T01:12:04;95361.84;;;26.15;94.69
9521;BME280;4798;41.574;23.734;2023-07-22T01:14:34;95357.94;;;26.12;93.89
9521;BME280;4798;41.574;23.734;2023-07-22T01:17:02;95358.34;;;25.88;93.11
9521;BME280;4798;41.574;23.734;2023-07-22T01:19:34;95366.94;;;25.94;95.17
9521;BME280;4798;41.574;23.734;2023-07-22T01:22:04;95361.72;;;26.08;94.88
9521;BME280;4798;41.574;23.734;2023-07-22T01:24:35;95365.53;;;26.03;93.65
9521;BME280;4798;41.574;23.734;2023-07-22T01:27:05;95359.97;;;25.96;93.79
9521;BME280;4798;41.574;23.734;2023-07-22T01:29:35;95355.31;;;25.70;94.12
9521;BME280;4798;41.574;23.734;2023-07-22T01:32:04;95368.91;;;25.70;97.46
9521;BME280;4798;41.574;23.734;2023-07-22T01:34:32;95368.13;;;25.70;98.03
9521;BME280;4798;41.574;23.734;2023-07-22T01:37:01;95367.63;;;25.87;96.21
9521;BME280;4798;41.574;23.734;2023-07-22T01:39:31;95359.94;;;25.93;96.52
9521;BME280;4798;41.574;23.734;2023-07-22T01:42:01;95361.47;;;25.90;96.04
9521;BME280;4798;41.574;23.734;2023-07-22T01:44:30;95364.59;;;25.92;96.02
9521;BME280;4798;41.574;23.734;2023-07-22T01:47:01;95367.06;;;25.78;97.61
9521;BME280;4798;41.574;23.734;2023-07-22T01:49:30;95362.88;;;25.80;98.08
9521;BME280;4798;41.574;23.734;2023-07-22T01:51:58;95361.78;;;25.85;96.62
9521;BME280;4798;41.574;23.734;2023-07-22T01:54:27;95363.53;;;25.74;98.08
9521;BME280;4798;41.574;23.734;2023-07-22T01:56:55;95362.75;;;25.73;97.58
9521;BME280;4798;41.574;23.734;2023-07-22T01:59:25;95361.81;;;25.62;98.72
9521;BME280;4798;41.574;23.734;2023-07-22T02:01:54;95368.91;;;25.70;97.72
9521;BME280;4798;41.574;23.734;2023-07-22T02:04:22;95375.63;;;25.54;99.40
9521;BME280;4798;41.574;23.734;2023-07-22T02:06:50;95365.47;;;25.51;99.89
9521;BME280;4798;41.574;23.734;2023-07-22T02:09:20;95377.84;;;25.48;100.00
9521;BME280;4798;41.574;23.734;2023-07-22T02:11:48;95381.75;;;25.51;100.00
9521;BME280;4798;41.574;23.734;2023-07-22T02:14:17;95382.56;;;25.51;100.00
9521;BME280;4798;41.574;23.734;2023-07-22T02:16:46;95386.50;;;25.35;100.00
9521;BME280;4798;41.574;23.734;2023-07-22T02:19:15;95391.94;;;25.35;100.00
9521;BME280;4798;41.574;23.734;2023-07-22T02:21:43;95387.59;;;25.53;100.00
9521;BME280;4798;41.574;23.734;2023-07-22T02:24:14;95391.06;;;25.31;100.00
9521;BME280;4798;41.574;23.734;2023-07-22T02:26:42;95380.94;;;25.47;100.00
9521;BME280;4798;41.574;23.734;2023-07-22T02:29:12;95378.19;;;25.24;100.00
9521;BME280;4798;41.574;23.734;2023-07-22T02:31:40;95376.41;;;25.12;100.00
9521;BME280;4798;41.574;23.734;2023-07-22T02:34:10;95372.19;;;25.15;100.00
9521;BME280;4798;41.574;23.734;2023-07-22T02:36:38;95376.56;;;25.19;100.00
9521;BME280;4798;41.574;23.734;2023-07-22T02:39:07;95381.13;;;25.15;100.00
9521;BME280;4798;41.574;23.734;2023-07-22T02:41:36;95377.50;;;25.31;100.00
9521;BME280;4798;41.574;23.734;2023-07-22T02:44:04;95376.59;;;25.23;100.00
9521;BME280;4798;41.574;23.734;2023-07-22T02:46:33;95386.13;;;25.13;100.00
9521;BME280;4798;41.574;23.734;2023-07-22T02:49:01;95389.31;;;25.19;100.00
9521;BME280;4798;41.574;23.734;2023-07-22T02:51:31;95402.34;;;24.91;100.00
9521;BME280;4798;41.574;23.734;2023-07-22T02:53:59;95388.72;;;25.06;100.00
9521;BME280;4798;41.574;23.734;2023-07-22T02:56:28;95392.44;;;24.98;100.00
9521;BME280;4798;41.574;23.734;2023-07-22T02:58:56;95397.06;;;25.17;100.00
9521;BME280;4798;41.574;23.734;2023-07-22T03:01:25;95391.34;;;25.45;100.00
9521;BME280;4798;41.574;23.734;2023-07-22T03:03:53;95399.75;;;24.59;100.00
9521;BME280;4798;41.574;23.734;2023-07-22T03:06:21;95402.91;;;24.27;100.00
9521;BME280;4798;41.574;23.734;2023-07-22T03:08:52;95400.28;;;23.80;100.00
9521;BME280;4798;41.574;23.734;2023-07-22T03:11:21;95394.94;;;23.36;100.00
9521;BME280;4798;41.574;23.734;2023-07-22T03:13:52;95405.88;;;23.40;100.00
9521;BME280;4798;41.574;23.734;2023-07-22T03:16:20;95404.25;;;23.86;100.00
9521;BME280;4798;41.574;23.734;2023-07-22T03:18:49;95410.44;;;24.33;100.00
9521;BME280;4798;41.574;23.734;2023-07-22T03:21:17;95359.28;;;23.97;100.00
9521;BME280;4798;41.574;23.734;2023-07-22T03:23:45;95417.22;;;24.62;100.00
9521;BME280;4798;41.574;23.734;2023-07-22T03:26:15;95419.56;;;24.44;100.00
9521;BME280;4798;41.574;23.734;2023-07-22T03:28:43;95414.56;;;24.46;100.00
9521;BME280;4798;41.574;23.734;2023-07-22T03:31:11;95411.84;;;24.46;100.00
9521;BME280;4798;41.574;23.734;2023-07-22T03:33:40;95422.28;;;24.79;100.00
9521;BME280;4798;41.574;23.734;2023-07-22T03:36:12;95421.34;;;24.91;100.00
9521;BME280;4798;41.574;23.734;2023-07-22T03:38:41;95416.84;;;24.98;100.00
9521;BME280;4798;41.574;23.734;2023-07-22T03:41:09;95404.16;;;24.68;100.00
9521;BME280;4798;41.574;23.734;2023-07-22T03:43:39;95411.88;;;24.12;100.00
9521;BME280;4798;41.574;23.734;2023-07-22T03:46:07;95421.31;;;23.86;100.00
9521;BME280;4798;41.574;23.734;2023-07-22T03:48:35;95414.44;;;24.24;100.00
9521;BME280;4798;41.574;23.734;2023-07-22T03:51:04;95409.41;;;23.91;100.00
9521;BME280;4798;41.574;23.734;2023-07-22T03:53:46;95408.03;;;23.81;100.00
9521;BME280;4798;41.574;23.734;2023-07-22T03:56:14;95410.91;;;23.88;100.00
9521;BME280;4798;41.574;23.734;2023-07-22T03:58:44;95413.81;;;23.80;100.00
9521;BME280;4798;41.574;23.734;2023-07-22T04:01:12;95416.03;;;23.93;100.00
9521;BME280;4798;41.574;23.734;2023-07-22T04:03:41;95420.53;;;23.70;100.00
9521;BME280;4798;41.574;23.734;2023-07-22T04:06:09;95412.06;;;23.13;100.00
9521;BME280;4798;41.574;23.734;2023-07-22T04:08:38;95420.34;;;23.20;100.00
9521;BME280;4798;41.574;23.734;2023-07-22T04:11:06;95427.59;;;23.44;100.00
9521;BME280;4798;41.574;23.734;2023-07-22T04:13:34;95429.34;;;23.67;100.00
9521;BME280;4798;41.574;23.734;2023-07-22T04:16:04;95439.53;;;23.58;100.00
9521;BME280;4798;41.574;23.734;2023-07-22T04:18:33;95431.88;;;23.60;100.00
9521;BME280;4798;41.574;23.734;2023-07-22T04:21:01;95438.00;;;23.57;100.00
9521;BME280;4798;41.574;23.734;2023-07-22T04:23:29;95442.34;;;24.09;100.00
9521;BME280;4798;41.574;23.734;2023-07-22T04:26:02;95441.31;;;24.13;100.00
9521;BME280;4798;41.574;23.734;2023-07-22T04:28:31;95437.44;;;24.14;100.00
9521;BME280;4798;41.574;23.734;2023-07-22T04:31:00;95431.34;;;24.52;100.00
9521;BME280;4798;41.574;23.734;2023-07-22T04:33:30;95432.91;;;24.72;100.00
9521;BME280;4798;41.574;23.734;2023-07-22T04:35:59;95440.34;;;24.56;100.00
9521;BME280;4798;41.574;23.734;2023-07-22T04:38:28;95452.72;;;24.38;100.00
9521;BME280;4798;41.574;23.734;2023-07-22T04:40:56;95436.00;;;24.71;100.00
9521;BME280;4798;41.574;23.734;2023-07-22T04:43:26;95440.09;;;24.99;100.00
9521;BME280;4798;41.574;23.734;2023-07-22T04:45:54;95431.53;;;24.97;100.00
9521;BME280;4798;41.574;23.734;2023-07-22T04:48:22;95422.84;;;24.88;100.00
9521;BME280;4798;41.574;23.734;2023-07-22T04:50:52;95425.75;;;24.99;100.00
9521;BME280;4798;41.574;23.734;2023-07-22T04:53:21;95399.13;;;25.04;100.00
9521;BME280;4798;41.574;23.734;2023-07-22T04:55:49;95421.72;;;25.31;98.27
9521;BME280;4798;41.574;23.734;2023-07-22T04:58:17;95421.00;;;25.34;95.86
9521;BME280;4798;41.574;23.734;2023-07-22T05:00:47;95419.03;;;25.54;95.77
9521;BME280;4798;41.574;23.734;2023-07-22T05:03:16;95415.34;;;25.65;93.66
9521;BME280;4798;41.574;23.734;2023-07-22T05:05:45;95425.56;;;25.72;92.57
9521;BME280;4798;41.574;23.734;2023-07-22T05:08:15;95429.22;;;25.60;91.38
9521;BME280;4798;41.574;23.734;2023-07-22T05:10:44;95422.44;;;25.47;91.62
9521;BME280;4798;41.574;23.734;2023-07-22T05:13:12;95432.75;;;25.42;92.83
9521;BME280;4798;41.574;23.734;2023-07-22T05:15:41;95438.53;;;25.59;91.05
9521;BME280;4798;41.574;23.734;2023-07-22T05:18:09;95432.25;;;25.78;90.59
9521;BME280;4798;41.574;23.734;2023-07-22T05:20:38;95435.78;;;26.05;90.14
9521;BME280;4798;41.574;23.734;2023-07-22T05:23:07;95435.38;;;26.03;88.77
9521;BME280;4798;41.574;23.734;2023-07-22T05:25:36;95419.56;;;26.08;89.25
9521;BME280;4798;41.574;23.734;2023-07-22T05:28:05;95421.09;;;26.09;88.78
9521;BME280;4798;41.574;23.734;2023-07-22T05:30:33;95423.97;;;26.16;88.53
9521;BME280;4798;41.574;23.734;2023-07-22T05:33:02;95432.13;;;26.42;86.20
9521;BME280;4798;41.574;23.734;2023-07-22T05:35:31;95429.78;;;26.41;84.84
9521;BME280;4798;41.574;23.734;2023-07-22T05:37:59;95423.56;;;26.40;86.05
9521;BME280;4798;41.574;23.734;2023-07-22T05:40:27;95435.00;;;26.57;85.16
9521;BME280;4798;41.574;23.734;2023-07-22T05:42:57;95427.63;;;26.54;86.48
9521;BME280;4798;41.574;23.734;2023-07-22T05:45:25;95418.03;;;26.33;89.31
9521;BME280;4798;41.574;23.734;2023-07-22T05:47:53;95421.09;;;26.62;88.99
9521;BME280;4798;41.574;23.734;2023-07-22T05:50:22;95415.00;;;25.90;91.56
9521;BME280;4798;41.574;23.734;2023-07-22T05:52:50;95427.31;;;25.61;93.57
9521;BME280;4798;41.574;23.734;2023-07-22T05:55:19;95426.94;;;25.85;93.17
9521;BME280;4798;41.574;23.734;2023-07-22T05:57:47;95414.56;;;26.66;87.40
9521;BME280;4798;41.574;23.734;2023-07-22T06:00:17;95410.78;;;27.04;85.55
9521;BME280;4798;41.574;23.734;2023-07-22T06:02:45;95414.91;;;26.91;82.66
9521;BME280;4798;41.574;23.734;2023-07-22T06:05:14;95405.97;;;26.64;84.23
9521;BME280;4798;41.574;23.734;2023-07-22T06:07:42;95410.41;;;26.76;83.46
9521;BME280;4798;41.574;23.734;2023-07-22T06:10:11;95414.38;;;27.12;82.67
9521;BME280;4798;41.574;23.734;2023-07-22T06:12:39;95419.59;;;27.27;80.58
9521;BME280;4798;41.574;23.734;2023-07-22T06:15:09;95427.97;;;27.45;80.52
9521;BME280;4798;41.574;23.734;2023-07-22T06:17:39;95424.41;;;28.25;78.23
9521;BME280;4798;41.574;23.734;2023-07-22T06:20:08;95416.53;;;28.13;77.74
9521;BME280;4798;41.574;23.734;2023-07-22T06:22:37;95421.75;;;28.36;77.62
9521;BME280;4798;41.574;23.734;2023-07-22T06:25:06;95425.50;;;28.71;73.60
9521;BME280;4798;41.574;23.734;2023-07-22T06:27:35;95421.00;;;28.42;73.33
9521;BME280;4798;41.574;23.734;2023-07-22T06:30:04;95424.66;;;28.67;73.11
9521;BME280;4798;41.574;23.734;2023-07-22T06:32:34;95363.56;;;28.82;71.13
9521;BME280;4798;41.574;23.734;2023-07-22T06:35:04;95405.09;;;29.66;69.80
9521;BME280;4798;41.574;23.734;2023-07-22T06:37:33;95417.50;;;29.21;69.85
9521;BME280;4798;41.574;23.734;2023-07-22T06:40:02;95420.41;;;28.70;71.94
9521;BME280;4798;41.574;23.734;2023-07-22T06:42:31;95409.78;;;29.54;70.08
9521;BME280;4798;41.574;23.734;2023-07-22T06:44:59;95389.53;;;29.87;71.20
9521;BME280;4798;41.574;23.734;2023-07-22T06:47:27;95403.16;;;29.59;68.29
9521;BME280;4798;41.574;23.734;2023-07-22T06:49:56;95382.88;;;30.20;67.06
9521;BME280;4798;41.574;23.734;2023-07-22T06:52:26;95402.75;;;30.63;66.76
9521;BME280;4798;41.574;23.734;2023-07-22T06:54:54;95410.22;;;30.09;65.87
9521;BME280;4798;41.574;23.734;2023-07-22T06:57:22;95403.50;;;30.70;65.86
9521;BME280;4798;41.574;23.734;2023-07-22T06:59:53;95403.59;;;30.35;67.27
9521;BME280;4798;41.574;23.734;2023-07-22T07:02:22;95343.41;;;30.25;65.30
9521;BME280;4798;41.574;23.734;2023-07-22T07:04:50;95402.97;;;31.11;64.84
9521;BME280;4798;41.574;23.734;2023-07-22T07:07:19;95409.31;;;30.79;63.39
9521;BME280;4798;41.574;23.734;2023-07-22T07:09:48;95394.25;;;31.33;64.13
9521;BME280;4798;41.574;23.734;2023-07-22T07:12:17;95399.06;;;31.77;62.35
9521;BME280;4798;41.574;23.734;2023-07-22T07:14:45;95397.44;;;31.83;60.49
9521;BME280;4798;41.574;23.734;2023-07-22T07:17:14;95398.56;;;31.27;60.06
9521;BME280;4798;41.574;23.734;2023-07-22T07:19:43;95397.38;;;31.90;59.17
9521;BME280;4798;41.574;23.734;2023-07-22T07:22:11;95381.28;;;32.40;59.47
9521;BME280;4798;41.574;23.734;2023-07-22T07:24:39;95385.06;;;32.57;58.23
9521;BME280;4798;41.574;23.734;2023-07-22T07:27:09;95389.22;;;33.06;57.71
9521;BME280;4798;41.574;23.734;2023-07-22T07:29:37;95391.44;;;33.14;56.14
9521;BME280;4798;41.574;23.734;2023-07-22T07:32:20;95387.84;;;33.48;56.17
9521;BME280;4798;41.574;23.734;2023-07-22T07:34:50;95387.91;;;33.44;54.66
9521;BME280;4798;41.574;23.734;2023-07-22T07:37:18;95386.59;;;33.25;54.62
9521;BME280;4798;41.574;23.734;2023-07-22T07:39:46;95395.69;;;33.49;53.93
9521;BME280;4798;41.574;23.734;2023-07-22T07:42:17;95386.22;;;32.93;54.31
9521;BME280;4798;41.574;23.734;2023-07-22T07:44:46;95386.84;;;33.35;53.46
9521;BME280;4798;41.574;23.734;2023-07-22T07:47:14;95388.28;;;33.46;52.86
9521;BME280;4798;41.574;23.734;2023-07-22T07:49:42;95394.47;;;33.23;53.05
9521;BME280;4798;41.574;23.734;2023-07-22T07:52:10;95396.19;;;32.77;52.73
9521;BME280;4798;41.574;23.734;2023-07-22T07:54:39;95395.34;;;32.83;54.78
9521;BME280;4798;41.574;23.734;2023-07-22T07:57:07;95392.09;;;33.56;52.67
9521;BME280;4798;41.574;23.734;2023-07-22T07:59:37;95391.63;;;34.11;53.60
9521;BME280;4798;41.574;23.734;2023-07-22T08:02:06;95389.16;;;34.39;51.58
9521;BME280;4798;41.574;23.734;2023-07-22T08:04:37;95392.47;;;34.31;51.37
9521;BME280;4798;41.574;23.734;2023-07-22T08:07:06;95380.97;;;34.59;52.12
9521;BME280;4798;41.574;23.734;2023-07-22T08:09:34;95386.56;;;35.15;50.01
9521;BME280;4798;41.574;23.734;2023-07-22T08:12:03;95379.13;;;34.72;51.02
9521;BME280;4798;41.574;23.734;2023-07-22T08:14:32;95358.25;;;34.75;49.70
9521;BME280;4798;41.574;23.734;2023-07-22T08:17:01;95378.38;;;34.48;50.42
9521;BME280;4798;41.574;23.734;2023-07-22T08:19:30;95375.41;;;34.82;50.67
9521;BME280;4798;41.574;23.734;2023-07-22T08:21:59;95374.06;;;35.46;49.15
9521;BME280;4798;41.574;23.734;2023-07-22T08:24:27;95372.06;;;35.82;47.58
9521;BME280;4798;41.574;23.734;2023-07-22T08:26:55;95370.97;;;35.44;47.84
9521;BME280;4798;41.574;23.734;2023-07-22T08:29:24;95374.47;;;35.64;48.64
9521;BME280;4798;41.574;23.734;2023-07-22T08:31:52;95370.06;;;35.83;48.97
9521;BME280;4798;41.574;23.734;2023-07-22T08:34:22;95360.56;;;35.67;48.99
9521;BME280;4798;41.574;23.734;2023-07-22T08:36:50;95349.44;;;35.39;49.03
9521;BME280;4798;41.574;23.734;2023-07-22T08:39:19;95361.22;;;35.39;47.61
9521;BME280;4798;41.574;23.734;2023-07-22T08:41:48;95360.06;;;35.72;47.06
9521;BME280;4798;41.574;23.734;2023-07-22T08:44:19;95350.59;;;36.67;45.99
9521;BME280;4798;41.574;23.734;2023-07-22T08:46:55;95342.88;;;37.16;45.16
9521;BME280;4798;41.574;23.734;2023-07-22T08:49:26;95345.13;;;36.92;45.84
9521;BME280;4798;41.574;23.734;2023-07-22T08:51:55;95325.06;;;37.04;45.84
9521;BME280;4798;41.574;23.734;2023-07-22T08:54:24;95339.69;;;36.76;44.40
9521;BME280;4798;41.574;23.734;2023-07-22T08:56:53;95343.56;;;36.78;43.87
9521;BME280;4798;41.574;23.734;2023-07-22T08:59:22;95339.91;;;35.92;45.82
9521;BME280;4798;41.574;23.734;2023-07-22T09:01:50;95339.88;;;36.24;45.90
9521;BME280;4798;41.574;23.734;2023-07-22T09:04:20;95335.16;;;36.08;44.89
9521;BME280;4798;41.574;23.734;2023-07-22T09:06:50;95340.13;;;37.16;43.89
9521;BME280;4798;41.574;23.734;2023-07-22T09:09:19;95341.16;;;37.97;42.47
9521;BME280;4798;41.574;23.734;2023-07-22T09:11:48;95331.81;;;38.72;41.99
9521;BME280;4798;41.574;23.734;2023-07-22T09:14:18;95328.28;;;38.50;41.10
9521;BME280;4798;41.574;23.734;2023-07-22T09:17:03;95323.88;;;37.18;42.52
9521;BME280;4798;41.574;23.734;2023-07-22T09:19:32;95333.56;;;36.97;43.82
9521;BME280;4798;41.574;23.734;2023-07-22T09:22:02;95331.28;;;37.33;44.52
9521;BME280;4798;41.574;23.734;2023-07-22T09:24:30;95330.31;;;36.86;45.71
9521;BME280;4798;41.574;23.734;2023-07-22T09:26:59;95324.34;;;37.92;46.38
9521;BME280;4798;41.574;23.734;2023-07-22T09:29:34;95320.34;;;38.27;42.62
9521;BME280;4798;41.574;23.734;2023-07-22T09:32:03;95327.50;;;37.02;43.43
9521;BME280;4798;41.574;23.734;2023-07-22T09:34:31;95325.69;;;37.87;42.52
9521;BME280;4798;41.574;23.734;2023-07-22T09:37:01;95325.34;;;38.32;40.81
9521;BME280;4798;41.574;23.734;2023-07-22T09:39:32;95317.88;;;39.07;39.90
9521;BME280;4798;41.574;23.734;2023-07-22T09:42:03;95317.88;;;38.42;38.80
9521;BME280;4798;41.574;23.734;2023-07-22T09:44:32;95309.06;;;37.87;40.75
9521;BME280;4798;41.574;23.734;2023-07-22T09:47:06;95313.72;;;37.52;40.54
9521;BME280;4798;41.574;23.734;2023-07-22T09:49:40;95299.72;;;38.41;40.17
9521;BME280;4798;41.574;23.734;2023-07-22T09:52:11;95301.91;;;38.67;41.25
9521;BME280;4798;41.574;23.734;2023-07-22T09:54:47;95294.69;;;39.44;40.43
9521;BME280;4798;41.574;23.734;2023-07-22T09:57:16;95287.56;;;39.83;40.03
9521;BME280;4798;41.574;23.734;2023-07-22T09:59:44;95289.56;;;39.12;40.52
9521;BME280;4798;41.574;23.734;2023-07-22T10:02:18;95285.50;;;38.95;39.41
9521;BME280;4798;41.574;23.734;2023-07-22T10:04:48;95279.47;;;39.58;42.06
9521;BME280;4798;41.574;23.734;2023-07-22T10:07:21;95276.50;;;39.43;39.97
9521;BME280;4798;41.574;23.734;2023-07-22T10:09:53;95280.53;;;40.18;40.72
9521;BME280;4798;41.574;23.734;2023-07-22T10:12:23;95271.69;;;39.92;38.77
9521;BME280;4798;41.574;23.734;2023-07-22T10:14:52;95223.56;;;39.77;38.04
9521;BME280;4798;41.574;23.734;2023-07-22T10:17:21;95266.28;;;39.80;37.96
9521;BME280;4798;41.574;23.734;2023-07-22T10:19:51;95257.03;;;39.74;37.56
9521;BME280;4798;41.574;23.734;2023-07-22T10:22:22;95256.94;;;40.14;36.83
9521;BME280;4798;41.574;23.734;2023-07-22T10:24:52;95264.97;;;40.30;38.82
9521;BME280;4798;41.574;23.734;2023-07-22T10:27:22;95249.03;;;39.94;37.01
9521;BME280;4798;41.574;23.734;2023-07-22T10:29:53;95260.44;;;40.69;37.48
9521;BME280;4798;41.574;23.734;2023-07-22T10:32:22;95256.19;;;41.09;38.07
9521;BME280;4798;41.574;23.734;2023-07-22T10:34:51;95252.19;;;41.10;36.07
9521;BME280;4798;41.574;23.734;2023-07-22T10:37:20;95247.94;;;41.24;35.48
9521;BME280;4798;41.574;23.734;2023-07-22T10:39:51;95245.44;;;40.84;34.25
9521;BME280;4798;41.574;23.734;2023-07-22T10:42:24;95239.75;;;41.39;34.94
9521;BME280;4798;41.574;23.734;2023-07-22T10:44:52;95232.63;;;41.38;36.69
9521;BME280;4798;41.574;23.734;2023-07-22T10:47:34;95230.16;;;41.63;33.47
9521;BME280;4798;41.574;23.734;2023-07-22T10:50:07;95239.78;;;41.86;35.08
9521;BME280;4798;41.574;23.734;2023-07-22T10:52:44;95230.88;;;41.07;33.72
9521;BME280;4798;41.574;23.734;2023-07-22T10:55:15;95228.81;;;41.17;33.31
9521;BME280;4798;41.574;23.734;2023-07-22T10:57:50;95220.38;;;41.44;33.99
9521;BME280;4798;41.574;23.734;2023-07-22T11:00:20;95217.16;;;42.08;35.71
9521;BME280;4798;41.574;23.734;2023-07-22T11:03:10;95216.97;;;42.35;33.99
9521;BME280;4798;41.574;23.734;2023-07-22T11:05:50;95215.66;;;41.83;32.07
9521;BME280;4798;41.574;23.734;2023-07-22T11:08:37;95168.84;;;42.20;33.27
9521;BME280;4798;41.574;23.734;2023-07-22T11:11:06;95210.06;;;42.07;33.69
9521;BME280;4798;41.574;23.734;2023-07-22T11:13:40;95197.44;;;41.16;33.30
9521;BME280;4798;41.574;23.734;2023-07-22T11:16:10;95205.06;;;41.16;35.80
9521;BME280;4798;41.574;23.734;2023-07-22T11:18:40;95200.97;;;40.93;36.10
9521;BME280;4798;41.574;23.734;2023-07-22T11:21:10;95195.22;;;41.86;34.30
9521;BME280;4798;41.574;23.734;2023-07-22T11:23:40;95195.16;;;42.33;33.23
9521;BME280;4798;41.574;23.734;2023-07-22T11:26:08;95195.94;;;42.49;33.69
9521;BME280;4798;41.574;23.734;2023-07-22T11:28:36;95198.94;;;42.07;34.54
9521;BME280;4798;41.574;23.734;2023-07-22T11:31:05;95159.41;;;42.17;32.09
9521;BME280;4798;41.574;23.734;2023-07-22T11:33:39;95163.34;;;41.63;31.88
9521;BME280;4798;41.574;23.734;2023-07-22T11:36:10;95182.16;;;41.54;33.64
9521;BME280;4798;41.574;23.734;2023-07-22T11:38:41;95183.66;;;41.55;32.23
9521;BME280;4798;41.574;23.734;2023-07-22T11:41:09;95179.63;;;42.03;29.89
9521;BME280;4798;41.574;23.734;2023-07-22T11:43:38;95174.81;;;42.57;29.06
9521;BME280;4798;41.574;23.734;2023-07-22T11:46:07;95159.94;;;41.92;27.94
9521;BME280;4798;41.574;23.734;2023-07-22T11:48:36;95183.59;;;41.40;28.23
9521;BME280;4798;41.574;23.734;2023-07-22T11:51:04;95180.13;;;41.22;29.56
9521;BME280;4798;41.574;23.734;2023-07-22T11:53:35;95178.31;;;41.18;29.99
9521;BME280;4798;41.574;23.734;2023-07-22T11:56:05;95175.34;;;41.22;28.36
9521;BME280;4798;41.574;23.734;2023-07-22T11:58:33;95169.13;;;41.36;28.32
9521;BME280;4798;41.574;23.734;2023-07-22T12:01:03;95164.13;;;40.66;27.87
9521;BME280;4798;41.574;23.734;2023-07-22T12:03:32;95166.81;;;40.84;28.20
9521;BME280;4798;41.574;23.734;2023-07-22T12:06:01;95160.03;;;40.85;26.85
9521;BME280;4798;41.574;23.734;2023-07-22T12:08:30;95151.22;;;40.95;26.23
9521;BME280;4798;41.574;23.734;2023-07-22T12:10:58;95157.66;;;41.01;27.44
9521;BME280;4798;41.574;23.734;2023-07-22T12:13:28;95154.25;;;41.06;29.17
9521;BME280;4798;41.574;23.734;2023-07-22T12:16:00;95155.88;;;40.11;28.25
9521;BME280;4798;41.574;23.734;2023-07-22T12:18:41;95157.91;;;40.80;27.95
9521;BME280;4798;41.574;23.734;2023-07-22T12:21:09;95134.81;;;40.65;27.64
9521;BME280;4798;41.574;23.734;2023-07-22T12:23:38;95150.44;;;40.53;28.04
9521;BME280;4798;41.574;23.734;2023-07-22T12:26:07;95145.81;;;40.32;28.22
9521;BME280;4798;41.574;23.734;2023-07-22T12:28:37;95154.31;;;40.28;29.50
9521;BME280;4798;41.574;23.734;2023-07-22T12:31:05;95150.19;;;40.15;28.95
9521;BME280;4798;41.574;23.734;2023-07-22T12:33:33;95146.59;;;40.23;28.12
9521;BME280;4798;41.574;23.734;2023-07-22T12:36:02;95138.47;;;39.83;29.82
9521;BME280;4798;41.574;23.734;2023-07-22T12:38:30;95148.31;;;39.75;29.13
9521;BME280;4798;41.574;23.734;2023-07-22T12:40:59;95128.44;;;39.77;29.27
9521;BME280;4798;41.574;23.734;2023-07-22T12:43:28;95135.31;;;39.45;30.66
9521;BME280;4798;41.574;23.734;2023-07-22T12:45:58;95142.25;;;39.31;31.00
9521;BME280;4798;41.574;23.734;2023-07-22T12:48:27;95127.63;;;38.82;31.17
9521;BME280;4798;41.574;23.734;2023-07-22T12:50:55;95131.03;;;39.44;30.36
9521;BME280;4798;41.574;23.734;2023-07-22T12:53:24;95126.66;;;39.25;30.51
9521;BME280;4798;41.574;23.734;2023-07-22T12:55:52;95125.66;;;39.68;29.65
9521;BME280;4798;41.574;23.734;2023-07-22T12:58:20;95127.31;;;39.38;30.28
9521;BME280;4798;41.574;23.734;2023-07-22T13:00:49;95129.63;;;39.40;29.91
9521;BME280;4798;41.574;23.734;2023-07-22T13:03:19;95116.84;;;39.51;30.22
9521;BME280;4798;41.574;23.734;2023-07-22T13:05:47;95135.06;;;39.79;29.56
9521;BME280;4798;41.574;23.734;2023-07-22T13:08:18;95116.53;;;39.58;29.84
9521;BME280;4798;41.574;23.734;2023-07-22T13:10:47;95120.88;;;39.68;30.35
9521;BME280;4798;41.574;23.734;2023-07-22T13:13:15;95124.25;;;40.00;30.22
9521;BME280;4798;41.574;23.734;2023-07-22T13:15:44;95114.16;;;39.11;31.12
9521;BME280;4798;41.574;23.734;2023-07-22T13:18:12;95113.28;;;39.23;30.98
9521;BME280;4798;41.574;23.734;2023-07-22T13:20:45;95108.19;;;39.40;30.54